CheckWX is a tool to help pilots better visualize weather data.  It is not intended as a substitute for an official pre-flight weather briefing.

03:05:14 UTC

LKPD METAR
Pardubice Airport
Pardubice, Czech Republic
Current

1 hour ago

LKPD 230200Z VRB02KT CAVOK M05/M11 Q1043 RMK BLU
Observed
Feb-23 @ 02:00 UTC
Wind
  • Variable at 2 KTS
Visibility
10,000+ meters
Flight Rules
VFR
Cloud Levels
  • Clear skies
Temperature
-5°C / 23°F
Dewpoint
-11°C / 12°F
Humidity
63%
Altimeter
30.8" Hg
Pressure
1042.91 hPa
Previous

2 hours ago

LKPD 230100Z VRB02KT CAVOK M05/M11 Q1043 RMK BLU
Observed
Feb-23 @ 01:00 UTC
Wind
  • Variable at 2 KTS
Visibility
10,000+ meters
Flight Rules
VFR
Cloud Levels
  • Clear skies
Temperature
-5°C / 23°F
Dewpoint
-11°C / 12°F
Humidity
63%
Altimeter
30.8" Hg
Pressure
1042.91 hPa
Previous

3 hours ago

LKPD 230000Z VRB02KT CAVOK M05/M10 Q1043 RMK BLU
Observed
Feb-23 @ 00:00 UTC
Wind
  • Variable at 2 KTS
Visibility
10,000+ meters
Flight Rules
VFR
Cloud Levels
  • Clear skies
Temperature
-5°C / 23°F
Dewpoint
-10°C / 14°F
Humidity
68%
Altimeter
30.8" Hg
Pressure
1042.91 hPa